Dunedin (NZDN)

Aerodrome — Elev 4
New Zealand
S045.55.41.002 E170.11.53.999
Loading chart...

Current Weather

NZDN 170000Z 24010KT 210V280 43KM SCT033 BKN060 OVC070 14/07 Q1008 RMK SWAMPY 23

Published 44 minutes ago

Airport Activity

Loading chart...
Loading chart...

Standard ATC Positions

CallsignRadio Name / Freq / Voice Room / TypeFrequencyType
NZCH-S_CTR Christchurch Control
129.300
nzch-s_ctr
129.300
NZDN_TWR Dunedin Tower
120.700
nzdn_twr
120.700
NZDN_ATIS Dunedin ATIS
126.450
nzdn_atis
126.450
UNICOM NZZC UNICOM
122.800
unicom_nzzc
122.800

Event ATC Positions

This airport has additional control positions that are designated for use only during major events.
These non-standard positions must not be staffed unless specifically activated by the VATNZ Airspace Director as part of an official VATNZ event.
At all other times, controllers should use the designated Standard ATC Positions.

CallsignRadio Name / Freq / Voice Room / TypeFrequencyType
NZCH-D_CTR Christchurch Control
129.200
nzch-d_ctr
129.200
NZDN_GND Dunedin Ground
128.500
nzdn_gnd
128.500
NZDN_DEL Dunedin Delivery
128.400
nzdn_del
128.400

Charts